createdAt,value
2016-04-23T00:00:07.779Z,0
2016-04-23T00:00:50.701Z,0
2016-04-23T00:01:33.625Z,0
2016-04-23T00:02:16.519Z,0
2016-04-23T00:02:59.412Z,0
2016-04-23T00:03:42.443Z,0
2016-04-23T00:04:25.399Z,0
2016-04-23T00:05:08.605Z,0
2016-04-23T00:05:51.543Z,0
2016-04-23T00:06:34.624Z,0
2016-04-23T00:07:17.579Z,0
2016-04-23T00:08:00.613Z,0
2016-04-23T00:08:43.504Z,0
2016-04-23T00:09:26.412Z,0
2016-04-23T00:10:09.322Z,0
2016-04-23T00:10:52.260Z,0
2016-04-23T00:11:35.168Z,0
2016-04-23T00:12:18.140Z,0
2016-04-23T00:13:01.126Z,0
2016-04-23T00:13:44.001Z,0
2016-04-23T00:14:26.895Z,0
2016-04-23T00:15:09.788Z,0
2016-04-23T00:15:52.663Z,0
2016-04-23T00:16:35.572Z,0
2016-04-23T00:17:18.606Z,0
2016-04-23T00:18:01.500Z,0
2016-04-23T00:18:44.453Z,0
2016-04-23T00:19:27.315Z,0
2016-04-23T00:20:09.973Z,0
2016-04-23T00:20:53.020Z,0
2016-04-23T00:21:36.070Z,0
2016-04-23T00:22:18.964Z,0
2016-04-23T00:23:01.950Z,0
2016-04-23T00:23:44.919Z,0
2016-04-23T00:24:27.844Z,0
2016-04-23T00:25:10.753Z,0
2016-04-23T00:25:53.644Z,0
2016-04-23T00:26:36.536Z,0
2016-04-23T00:27:19.492Z,0
2016-04-23T00:28:02.402Z,0
2016-04-23T00:28:45.386Z,0
2016-04-23T00:29:28.154Z,0
2016-04-23T00:30:11.188Z,0
2016-04-23T00:30:54.141Z,0
2016-04-23T00:31:37.206Z,0
2016-04-23T00:32:20.022Z,0
2016-04-23T00:33:02.977Z,0
2016-04-23T00:33:45.149Z,0
2016-04-23T00:34:28.089Z,0
2016-04-23T00:35:10.827Z,0
2016-04-23T00:35:53.733Z,0
2016-04-23T00:36:36.626Z,0
2016-04-23T00:37:19.519Z,0
2016-04-23T00:38:02.491Z,0
2016-04-23T00:38:45.397Z,0
2016-04-23T00:39:28.274Z,0
2016-04-23T00:40:10.996Z,0
2016-04-23T00:40:53.871Z,0
2016-04-23T00:41:36.749Z,0
2016-04-23T00:42:19.657Z,0
2016-04-23T00:43:02.535Z,0
2016-04-23T00:43:45.426Z,0
2016-04-23T00:44:28.320Z,0
2016-04-23T00:45:11.213Z,0
2016-04-23T00:45:54.088Z,0
2016-04-23T00:46:36.996Z,0
2016-04-23T00:47:19.921Z,0
2016-04-23T00:48:02.065Z,0
2016-04-23T00:48:44.924Z,0
2016-04-23T00:49:27.817Z,0
2016-04-23T00:50:10.726Z,0
2016-04-23T00:50:53.617Z,0
2016-04-23T00:51:36.494Z,0
2016-04-23T00:52:19.388Z,0
2016-04-23T00:53:02.265Z,0
2016-04-23T00:53:45.156Z,0
2016-04-23T00:54:27.878Z,0
2016-04-23T00:55:10.786Z,0
2016-04-23T00:55:53.661Z,0
2016-04-23T00:56:36.602Z,0
2016-04-23T00:57:19.495Z,0
2016-04-23T00:58:02.388Z,0
2016-04-23T00:58:45.263Z,0
2016-04-23T00:59:28.156Z,0
2016-04-23T01:00:11.034Z,0
2016-04-23T01:00:53.956Z,0
2016-04-23T01:01:36.850Z,0
2016-04-23T01:02:19.774Z,0
2016-04-23T01:03:02.651Z,0
2016-04-23T01:03:45.526Z,0
2016-04-23T01:04:28.419Z,0
2016-04-23T01:05:11.330Z,0
2016-04-23T01:05:54.236Z,0
2016-04-23T01:06:37.113Z,0
2016-04-23T01:07:20.052Z,0
2016-04-23T01:08:02.931Z,0
2016-04-23T01:08:45.822Z,0
2016-04-23T01:09:28.699Z,0
2016-04-23T01:10:11.624Z,0
2016-04-23T01:10:54.499Z,0
2016-04-23T01:11:37.423Z,0
2016-04-23T01:12:20.302Z,0
2016-04-23T01:13:03.179Z,0
2016-04-23T01:13:46.069Z,0
2016-04-23T01:14:28.962Z,0
2016-04-23T01:15:11.840Z,0
2016-04-23T01:15:54.731Z,0
2016-04-23T01:16:37.623Z,0
2016-04-23T01:17:20.534Z,0
2016-04-23T01:18:03.411Z,0
2016-04-23T01:18:46.301Z,0
2016-04-23T01:19:29.179Z,0
2016-04-23T01:20:11.292Z,0
2016-04-23T01:20:54.167Z,0
2016-04-23T01:21:37.076Z,0
2016-04-23T01:22:19.968Z,0
2016-04-23T01:23:02.924Z,0
2016-04-23T01:23:45.845Z,0
2016-04-23T01:24:28.709Z,0
2016-04-23T01:25:11.633Z,0
2016-04-23T01:25:54.523Z,0
2016-04-23T01:26:37.386Z,0
2016-04-23T01:27:20.278Z,0
2016-04-23T01:28:03.188Z,0
2016-04-23T01:28:46.063Z,0
2016-04-23T01:29:28.956Z,0
2016-04-23T01:30:11.849Z,0
2016-04-23T01:30:54.739Z,0
2016-04-23T01:31:37.602Z,0
2016-04-23T01:32:20.511Z,0
2016-04-23T01:33:03.405Z,0
2016-04-23T01:33:46.295Z,0
2016-04-23T01:34:29.188Z,0
2016-04-23T01:35:12.160Z,0
2016-04-23T01:35:55.097Z,0
2016-04-23T01:36:38.053Z,0
2016-04-23T01:37:21.008Z,0
2016-04-23T01:38:03.949Z,0
2016-04-23T01:38:46.902Z,0
2016-04-23T01:39:29.858Z,0
2016-04-23T01:40:12.829Z,0
2016-04-23T01:40:55.782Z,0
2016-04-23T01:41:38.723Z,0
2016-04-23T01:42:21.663Z,0
2016-04-23T01:43:04.649Z,0
2016-04-23T01:43:47.603Z,0
2016-04-23T01:44:30.559Z,0
2016-04-23T01:45:13.374Z,0
2016-04-23T01:45:56.327Z,0
2016-04-23T01:46:39.268Z,0
2016-04-23T01:47:22.223Z,0
2016-04-23T01:48:05.179Z,0
2016-04-23T01:48:48.132Z,0
2016-04-23T01:49:31.104Z,0
2016-04-23T01:50:14.059Z,0
2016-04-23T01:50:57.012Z,0
2016-04-23T01:51:40.000Z,0
2016-04-23T01:52:22.939Z,0
2016-04-23T01:53:05.896Z,0
2016-04-23T01:53:48.849Z,0
2016-04-23T01:54:31.804Z,0
2016-04-23T01:55:14.760Z,0
2016-04-23T01:55:58.025Z,0
2016-04-23T01:56:40.982Z,0
2016-04-23T01:57:23.937Z,0
2016-04-23T01:58:06.878Z,0
2016-04-23T01:58:49.831Z,0
2016-04-23T01:59:32.771Z,0
2016-04-23T02:00:15.743Z,0
2016-04-23T02:00:58.696Z,0
2016-04-23T02:01:41.667Z,0
2016-04-23T02:02:24.654Z,0
2016-04-23T02:03:07.594Z,0
2016-04-23T02:03:50.532Z,0
2016-04-23T02:04:33.487Z,0
2016-04-23T02:05:16.475Z,0
2016-04-23T02:05:59.397Z,0
2016-04-23T02:06:42.383Z,0
2016-04-23T02:07:25.355Z,0
2016-04-23T02:08:08.139Z,0
2016-04-23T02:08:51.092Z,0
2016-04-23T02:09:34.033Z,0
2016-04-23T02:10:16.988Z,0
2016-04-23T02:10:59.926Z,0
2016-04-23T02:11:42.896Z,0
2016-04-23T02:12:25.853Z,0
2016-04-23T02:13:08.809Z,0
2016-04-23T02:13:51.746Z,0
2016-04-23T02:14:34.687Z,0
2016-04-23T02:15:17.642Z,0
2016-04-23T02:16:00.595Z,0
2016-04-23T02:16:43.567Z,0
2016-04-23T02:17:26.523Z,0
2016-04-23T02:18:09.478Z,0
2016-04-23T02:18:52.431Z,0
2016-04-23T02:19:35.387Z,0
2016-04-23T02:20:18.328Z,0
2016-04-23T02:21:01.296Z,0
2016-04-23T02:21:44.096Z,0
2016-04-23T02:22:26.577Z,0
2016-04-23T02:23:09.502Z,0
2016-04-23T02:23:52.455Z,0
2016-04-23T02:24:35.411Z,0
2016-04-23T02:25:18.366Z,0
2016-04-23T02:26:01.303Z,0
2016-04-23T02:26:44.260Z,0
2016-04-23T02:27:27.215Z,0
2016-04-23T02:28:10.187Z,0
2016-04-23T02:28:53.141Z,0
2016-04-23T02:29:36.080Z,0
2016-04-23T02:30:19.021Z,0
2016-04-23T02:31:02.024Z,0
2016-04-23T02:31:44.961Z,0
2016-04-23T02:32:27.932Z,0
2016-04-23T02:33:10.919Z,0
2016-04-23T02:33:53.888Z,0
2016-04-23T02:34:36.827Z,0
2016-04-23T02:35:19.862Z,0
2016-04-23T02:36:02.818Z,0
2016-04-23T02:36:45.771Z,0
2016-04-23T02:37:28.711Z,0
2016-04-23T02:38:11.682Z,0
2016-04-23T02:38:54.667Z,0
2016-04-23T02:39:37.638Z,0
2016-04-23T02:40:20.579Z,0
2016-04-23T02:41:03.534Z,0
2016-04-23T02:41:46.471Z,0
2016-04-23T02:42:29.443Z,0
2016-04-23T02:43:12.384Z,0
2016-04-23T02:43:55.337Z,0
2016-04-23T02:44:38.309Z,0
2016-04-23T02:45:21.264Z,0
2016-04-23T02:46:04.235Z,0
2016-04-23T02:46:47.189Z,0
2016-04-23T02:47:30.035Z,0
2016-04-23T02:48:12.975Z,0
2016-04-23T02:48:55.912Z,0
2016-04-23T02:49:38.868Z,0
2016-04-23T02:50:21.839Z,0
2016-04-23T02:51:04.812Z,0
2016-04-23T02:51:47.749Z,0
2016-04-23T02:52:30.720Z,0
2016-04-23T02:53:13.488Z,0
2016-04-23T02:53:56.472Z,0
2016-04-23T02:54:39.414Z,0
2016-04-23T02:55:22.228Z,0
2016-04-23T02:56:05.184Z,0
2016-04-23T02:56:48.153Z,0
2016-04-23T02:57:31.093Z,0
2016-04-23T02:58:14.050Z,0
2016-04-23T02:58:56.847Z,0
2016-04-23T02:59:39.802Z,0
2016-04-23T03:00:22.772Z,0
2016-04-23T03:01:05.729Z,0
2016-04-23T03:01:48.525Z,0
2016-04-23T03:02:31.482Z,0
2016-04-23T03:03:14.422Z,0
2016-04-23T03:03:57.375Z,0
2016-04-23T03:04:40.315Z,0
2016-04-23T03:05:23.286Z,0
2016-04-23T03:06:06.227Z,0
2016-04-23T03:06:49.196Z,0
2016-04-23T03:07:32.151Z,0
2016-04-23T03:08:15.123Z,0
2016-04-23T03:08:58.060Z,0
2016-04-23T03:09:41.001Z,0
2016-04-23T03:10:23.957Z,0
2016-04-23T03:11:06.927Z,0
2016-04-23T03:11:49.881Z,0
2016-04-23T03:12:32.820Z,0
2016-04-23T03:13:15.793Z,0
2016-04-23T03:13:58.730Z,0
2016-04-23T03:14:41.670Z,0
2016-04-23T03:15:24.641Z,0
2016-04-23T03:16:07.598Z,0
2016-04-23T03:16:50.535Z,0
2016-04-23T03:17:33.506Z,0
2016-04-23T03:18:16.446Z,0
2016-04-23T03:18:59.384Z,0
2016-04-23T03:19:42.340Z,0
2016-04-23T03:20:25.296Z,0
2016-04-23T03:21:08.220Z,0
2016-04-23T03:21:51.173Z,0
2016-04-23T03:22:34.145Z,0
2016-04-23T03:23:17.100Z,0
2016-04-23T03:24:00.053Z,0
2016-04-23T03:24:43.009Z,0
2016-04-23T03:25:25.933Z,0
2016-04-23T03:26:08.905Z,0
2016-04-23T03:26:51.874Z,0
2016-04-23T03:27:34.846Z,0
2016-04-23T03:28:17.786Z,0
2016-04-23T03:29:00.723Z,0
2016-04-23T03:29:43.664Z,0
2016-04-23T03:30:26.619Z,0
2016-04-23T03:31:09.560Z,0
2016-04-23T03:31:52.513Z,0
2016-04-23T03:32:35.484Z,0
2016-04-23T03:33:18.424Z,0
2016-04-23T03:34:01.377Z,0
2016-04-23T03:34:44.318Z,0
2016-04-23T03:35:27.289Z,0
2016-04-23T03:36:10.230Z,0
2016-04-23T03:36:53.214Z,0
2016-04-23T03:37:36.169Z,0
2016-04-23T03:38:19.125Z,0
2016-04-23T03:39:02.063Z,0
2016-04-23T03:39:45.035Z,0
2016-04-23T03:40:27.990Z,0
2016-04-23T03:41:10.945Z,0
2016-04-23T03:41:53.898Z,0
2016-04-23T03:42:36.839Z,0
2016-04-23T03:43:19.796Z,0
2016-04-23T03:44:02.624Z,0
2016-04-23T03:44:45.563Z,0
2016-04-23T03:45:28.519Z,0
2016-04-23T03:46:11.475Z,0
2016-04-23T03:46:54.428Z,0
2016-04-23T03:47:37.384Z,0
2016-04-23T03:48:20.309Z,0
2016-04-23T03:49:03.277Z,0
2016-04-23T03:49:46.201Z,0
2016-04-23T03:50:29.204Z,0
2016-04-23T03:51:12.145Z,0
2016-04-23T03:51:55.082Z,0
2016-04-23T03:52:38.023Z,0
2016-04-23T03:53:20.978Z,0
2016-04-23T03:54:03.931Z,0
2016-04-23T03:54:46.887Z,0
2016-04-23T03:55:29.877Z,0
2016-04-23T03:56:12.818Z,0
2016-04-23T03:56:55.755Z,0
2016-04-23T03:57:38.727Z,0
2016-04-23T03:58:21.682Z,0
2016-04-23T03:59:04.620Z,0
2016-04-23T03:59:47.577Z,0
2016-04-23T04:00:30.547Z,0
2016-04-23T04:01:13.488Z,0
2016-04-23T04:01:56.457Z,0
2016-04-23T04:02:39.397Z,0
2016-04-23T04:03:22.353Z,0
2016-04-23T04:04:05.292Z,0
2016-04-23T04:04:48.245Z,0
2016-04-23T04:05:31.217Z,0
2016-04-23T04:06:14.173Z,0
2016-04-23T04:06:56.329Z,0
2016-04-23T04:07:39.285Z,0
2016-04-23T04:08:22.273Z,0
2016-04-23T04:09:05.197Z,0
2016-04-23T04:09:48.150Z,0
2016-04-23T04:10:31.105Z,0
2016-04-23T04:11:14.078Z,0
2016-04-23T04:11:57.031Z,0
2016-04-23T04:12:39.986Z,0
2016-04-23T04:13:22.926Z,0
2016-04-23T04:14:05.883Z,0
2016-04-23T04:14:48.836Z,0
2016-04-23T04:15:31.650Z,0
2016-04-23T04:16:14.622Z,0
2016-04-23T04:16:57.575Z,0
2016-04-23T04:17:40.547Z,0
2016-04-23T04:18:23.486Z,0
2016-04-23T04:19:06.442Z,0
2016-04-23T04:19:49.396Z,0
2016-04-23T04:20:32.335Z,5
2016-04-23T04:21:15.307Z,5
2016-04-23T04:21:58.260Z,5
2016-04-23T04:22:41.247Z,5
2016-04-23T04:23:24.188Z,5
2016-04-23T04:24:07.175Z,5
2016-04-23T04:24:50.097Z,5
2016-04-23T04:25:33.052Z,5
2016-04-23T04:26:15.993Z,5
2016-04-23T04:26:58.946Z,10
2016-04-23T04:27:41.901Z,10
2016-04-23T04:28:24.904Z,10
2016-04-23T04:29:07.860Z,10
2016-04-23T04:29:50.813Z,10
2016-04-23T04:30:33.785Z,10
2016-04-23T04:31:16.725Z,10
2016-04-23T04:31:59.679Z,15
2016-04-23T04:32:42.634Z,15
2016-04-23T04:33:25.574Z,15
2016-04-23T04:34:08.545Z,15
2016-04-23T04:34:51.482Z,15
2016-04-23T04:35:34.454Z,15
2016-04-23T04:36:17.394Z,15
2016-04-23T04:37:00.378Z,15
2016-04-23T04:37:43.319Z,15
2016-04-23T04:38:26.275Z,20
2016-04-23T04:39:09.262Z,20
2016-04-23T04:39:52.246Z,20
2016-04-23T04:40:35.203Z,20
2016-04-23T04:41:18.158Z,20
2016-04-23T04:42:01.095Z,20
2016-04-23T04:42:44.051Z,20
2016-04-23T04:43:27.006Z,20
2016-04-23T04:44:09.963Z,20
2016-04-23T04:44:52.947Z,20
2016-04-23T04:45:35.887Z,20
2016-04-23T04:46:18.844Z,20
2016-04-23T04:47:01.797Z,25
2016-04-23T04:47:44.753Z,25
2016-04-23T04:48:27.692Z,25
2016-04-23T04:49:10.695Z,25
2016-04-23T04:49:53.664Z,25
2016-04-23T04:50:36.791Z,25
2016-04-23T04:51:20.232Z,25
2016-04-23T04:52:03.888Z,25
2016-04-23T04:52:46.905Z,25
2016-04-23T04:53:30.002Z,25
2016-04-23T04:54:13.036Z,25
2016-04-23T04:54:56.005Z,25
2016-04-23T04:55:39.008Z,25
2016-04-23T04:56:22.105Z,25
2016-04-23T04:57:05.152Z,25
2016-04-23T04:57:48.216Z,25
2016-04-23T04:58:31.235Z,30
2016-04-23T04:59:14.424Z,30
2016-04-23T04:59:57.518Z,30
2016-04-23T05:00:40.537Z,35
2016-04-23T05:01:23.618Z,35
2016-04-23T05:02:07.074Z,35
2016-04-23T05:02:50.090Z,35
2016-04-23T05:03:33.171Z,35
2016-04-23T05:04:16.251Z,40
2016-04-23T05:04:59.329Z,40
2016-04-23T05:05:42.379Z,40
2016-04-23T05:06:25.428Z,40
2016-04-23T05:07:08.307Z,40
2016-04-23T05:07:51.416Z,40
2016-04-23T05:08:34.683Z,40
2016-04-23T05:09:17.780Z,40
2016-04-23T05:10:00.920Z,40
2016-04-23T05:10:43.892Z,45
2016-04-23T05:11:26.801Z,45
2016-04-23T05:12:09.834Z,45
2016-04-23T05:12:52.866Z,45
2016-04-23T05:13:36.041Z,45
2016-04-23T05:14:19.403Z,45
2016-04-23T05:15:01.840Z,45
2016-04-23T05:15:44.937Z,45
2016-04-23T05:16:28.314Z,45
2016-04-23T05:17:11.364Z,45
2016-04-23T05:17:54.489Z,45
2016-04-23T05:18:37.539Z,45
2016-04-23T05:19:20.667Z,45
2016-04-23T05:20:03.542Z,45
2016-04-23T05:20:46.700Z,45
2016-04-23T05:21:29.875Z,45
2016-04-23T05:22:12.893Z,50
2016-04-23T05:22:55.955Z,50
2016-04-23T05:23:39.161Z,50
2016-04-23T05:24:22.195Z,50
2016-04-23T05:25:05.538Z,55
2016-04-23T05:25:48.557Z,50
2016-04-23T05:26:31.544Z,55
2016-04-23T05:27:15.188Z,55
2016-04-23T05:27:58.329Z,60
2016-04-23T05:28:41.457Z,60
2016-04-23T05:29:24.599Z,60
2016-04-23T05:30:08.071Z,60
2016-04-23T05:30:51.133Z,60
2016-04-23T05:31:37.292Z,65
2016-04-23T05:32:20.529Z,65
2016-04-23T05:33:03.529Z,65
2016-04-23T05:33:46.595Z,65
2016-04-23T05:34:29.582Z,65
2016-04-23T05:35:12.537Z,65
2016-04-23T05:35:55.568Z,65
2016-04-23T05:36:39.274Z,65
2016-04-23T05:37:22.387Z,70
2016-04-23T05:38:05.824Z,65
2016-04-23T05:38:49.108Z,65
2016-04-23T05:39:32.267Z,65
2016-04-23T05:40:15.332Z,70
2016-04-23T05:40:58.660Z,70
2016-04-23T05:41:41.726Z,75
2016-04-23T05:42:24.837Z,75
2016-04-23T05:43:08.106Z,80
2016-04-23T05:43:51.731Z,80
2016-04-23T05:44:38.093Z,85
2016-04-23T05:45:21.267Z,85
2016-04-23T05:46:04.642Z,85
2016-04-23T05:46:46.989Z,90
2016-04-23T05:47:30.147Z,90
2016-04-23T05:48:13.386Z,95
2016-04-23T05:48:56.573Z,95
2016-04-23T05:49:39.684Z,100
2016-04-23T05:50:22.812Z,105
2016-04-23T05:51:06.109Z,105
2016-04-23T05:51:49.269Z,105
2016-04-23T05:52:32.349Z,110
2016-04-23T05:53:15.586Z,110
2016-04-23T05:53:58.695Z,110
2016-04-23T05:54:41.947Z,110
2016-04-23T05:55:25.232Z,115
2016-04-23T05:56:08.375Z,115
2016-04-23T05:56:51.828Z,120
2016-04-23T05:57:34.846Z,120
2016-04-23T05:58:17.818Z,125
2016-04-23T05:59:00.755Z,125
2016-04-23T05:59:43.696Z,125
2016-04-23T06:00:26.652Z,125
2016-04-23T06:01:09.638Z,125
2016-04-23T06:01:52.591Z,125
2016-04-23T06:02:35.563Z,125
2016-04-23T06:03:18.503Z,130
2016-04-23T06:04:01.440Z,130
2016-04-23T06:04:44.429Z,130
2016-04-23T06:05:27.415Z,130
2016-04-23T06:06:10.387Z,130
2016-04-23T06:06:53.215Z,135
2016-04-23T06:07:36.218Z,135
2016-04-23T06:08:19.220Z,140
2016-04-23T06:09:02.360Z,140
2016-04-23T06:09:45.410Z,140
2016-04-23T06:10:28.709Z,145
2016-04-23T06:11:11.743Z,145
2016-04-23T06:11:55.509Z,145
2016-04-23T06:12:38.840Z,145
2016-04-23T06:13:22.170Z,145
2016-04-23T06:14:05.545Z,145
2016-04-23T06:14:48.658Z,145
2016-04-23T06:15:31.958Z,145
2016-04-23T06:16:15.132Z,145
2016-04-23T06:16:58.257Z,145
2016-04-23T06:17:41.369Z,145
2016-04-23T06:18:24.606Z,145
2016-04-23T06:19:08.122Z,145
2016-04-23T06:19:51.186Z,145
2016-04-23T06:20:35.050Z,150
2016-04-23T06:21:18.303Z,150
2016-04-23T06:22:01.412Z,150
2016-04-23T06:22:44.602Z,150
2016-04-23T06:23:27.698Z,150
2016-04-23T06:24:10.653Z,145
2016-04-23T06:24:53.591Z,145
2016-04-23T06:25:36.563Z,145
2016-04-23T06:26:19.549Z,145
2016-04-23T06:27:02.502Z,145
2016-04-23T06:27:45.458Z,145
2016-04-23T06:28:28.414Z,145
2016-04-23T06:29:11.386Z,140
2016-04-23T06:29:54.339Z,140
2016-04-23T06:30:37.294Z,135
2016-04-23T06:31:20.251Z,135
2016-04-23T06:32:03.204Z,135
2016-04-23T06:32:46.004Z,135
2016-04-23T06:33:29.021Z,130
2016-04-23T06:34:11.993Z,130
2016-04-23T06:34:54.930Z,125
2016-04-23T06:35:37.886Z,125
2016-04-23T06:36:20.858Z,125
2016-04-23T06:37:03.827Z,130
2016-04-23T06:37:46.768Z,130
2016-04-23T06:38:29.723Z,135
2016-04-23T06:39:12.679Z,135
2016-04-23T06:39:55.616Z,140
2016-04-23T06:40:37.821Z,145
2016-04-23T06:41:20.778Z,140
2016-04-23T06:42:03.746Z,140
2016-04-23T06:42:46.686Z,140
2016-04-23T06:43:29.658Z,140
2016-04-23T06:44:11.848Z,140
2016-04-23T06:44:54.770Z,145
2016-04-23T06:45:37.757Z,150
2016-04-23T06:46:20.962Z,155
2016-04-23T06:47:03.931Z,155
2016-04-23T06:47:46.887Z,155
2016-04-23T06:48:29.859Z,165
2016-04-23T06:49:12.799Z,175
2016-04-23T06:49:55.752Z,185
2016-04-23T06:50:38.708Z,195
2016-04-23T06:51:21.663Z,200
2016-04-23T06:52:04.632Z,205
2016-04-23T06:52:47.573Z,210
2016-04-23T06:53:30.545Z,215
2016-04-23T06:54:13.484Z,215
2016-04-23T06:54:56.438Z,215
2016-04-23T06:55:39.394Z,215
2016-04-23T06:56:22.364Z,215
2016-04-23T06:57:05.318Z,220
2016-04-23T06:57:48.274Z,220
2016-04-23T06:58:31.074Z,220
2016-04-23T06:59:14.013Z,215
2016-04-23T06:59:56.966Z,215
2016-04-23T07:00:39.954Z,220
2016-04-23T07:01:22.878Z,225
2016-04-23T07:02:05.847Z,230
2016-04-23T07:02:48.881Z,230
2016-04-23T07:03:31.868Z,220
2016-04-23T07:04:14.808Z,215
2016-04-23T07:04:57.793Z,205
2016-04-23T07:05:40.748Z,200
2016-04-23T07:06:23.829Z,195
2016-04-23T07:07:06.891Z,195
2016-04-23T07:07:50.503Z,200
2016-04-23T07:08:33.538Z,205
2016-04-23T07:09:16.010Z,205
2016-04-23T07:09:58.979Z,210
2016-04-23T07:10:41.934Z,210
2016-04-23T07:11:24.890Z,215
2016-04-23T07:12:07.843Z,220
2016-04-23T07:12:50.814Z,225
2016-04-23T07:13:33.770Z,230
2016-04-23T07:14:16.726Z,230
2016-04-23T07:14:59.663Z,225
2016-04-23T07:15:42.634Z,220
2016-04-23T07:16:25.590Z,220
2016-04-23T07:17:08.543Z,215
2016-04-23T07:17:51.500Z,210
2016-04-23T07:18:35.237Z,210
2016-04-23T07:19:18.239Z,215
2016-04-23T07:20:01.208Z,220
2016-04-23T07:20:44.164Z,210
2016-04-23T07:21:27.119Z,210
2016-04-23T07:22:09.650Z,205
2016-04-23T07:22:52.638Z,205
2016-04-23T07:23:35.609Z,195
2016-04-23T07:24:18.597Z,180
2016-04-23T07:25:01.550Z,180
2016-04-23T07:25:44.505Z,175
2016-04-23T07:26:27.445Z,170
2016-04-23T07:27:10.414Z,170
2016-04-23T07:27:53.369Z,160
2016-04-23T07:28:36.341Z,145
2016-04-23T07:29:19.297Z,135
2016-04-23T07:30:02.250Z,130
2016-04-23T07:30:45.206Z,125
2016-04-23T07:31:28.177Z,115
2016-04-23T07:32:11.133Z,110
2016-04-23T07:32:54.633Z,105
2016-04-23T07:33:37.621Z,100
2016-04-23T07:34:20.420Z,95
2016-04-23T07:35:03.373Z,90
2016-04-23T07:35:46.344Z,90
2016-04-23T07:36:31.269Z,95
2016-04-23T07:37:14.210Z,100
2016-04-23T07:37:57.163Z,100
2016-04-23T07:38:40.102Z,100
2016-04-23T07:39:23.074Z,95
2016-04-23T07:40:06.012Z,90
2016-04-23T07:40:48.967Z,85
2016-04-23T07:41:31.939Z,85
2016-04-23T07:42:14.939Z,80
2016-04-23T07:42:57.893Z,70
2016-04-23T07:43:40.736Z,70
2016-04-23T07:44:23.737Z,65
2016-04-23T07:45:06.721Z,65
2016-04-23T07:45:49.720Z,65
2016-04-23T07:46:32.714Z,75
2016-04-23T07:47:15.702Z,85
2016-04-23T07:47:58.639Z,95
2016-04-23T07:48:41.486Z,105
2016-04-23T07:49:24.443Z,105
2016-04-23T07:50:07.411Z,115
2016-04-23T07:50:50.384Z,125
2016-04-23T07:51:33.379Z,135
2016-04-23T07:52:16.324Z,140
2016-04-23T07:52:59.278Z,150
2016-04-23T07:53:42.240Z,155
2016-04-23T07:54:25.201Z,160
2016-04-23T07:55:08.154Z,165
2016-04-23T07:55:51.131Z,175
2016-04-23T07:56:34.090Z,175
2016-04-23T07:57:17.048Z,185
2016-04-23T07:58:00.032Z,195
2016-04-23T07:58:43.006Z,200
2016-04-23T07:59:25.963Z,210
2016-04-23T08:00:08.932Z,215
2016-04-23T08:00:51.906Z,220
2016-04-23T08:01:34.862Z,225
2016-04-23T08:02:17.912Z,230
2016-04-23T08:03:01.896Z,235
2016-04-23T08:03:43.995Z,235
2016-04-23T08:04:26.951Z,250
2016-04-23T08:05:09.873Z,240
2016-04-23T08:05:52.846Z,245
2016-04-23T08:06:35.629Z,240
2016-04-23T08:07:18.602Z,310
2016-04-23T08:08:01.586Z,455
2016-04-23T08:08:44.542Z,475
2016-04-23T08:09:27.482Z,505
2016-04-23T08:10:10.435Z,520
2016-04-23T08:10:53.392Z,490
2016-04-23T08:11:36.363Z,515
2016-04-23T08:12:19.334Z,510
2016-04-23T08:13:02.287Z,560
2016-04-23T08:13:44.447Z,575
2016-04-23T08:14:27.418Z,575
2016-04-23T08:15:10.387Z,555
2016-04-23T08:15:53.342Z,545
2016-04-23T08:16:38.173Z,550
2016-04-23T08:17:21.144Z,600
2016-04-23T08:18:04.113Z,610
2016-04-23T08:18:47.086Z,605
2016-04-23T08:19:29.916Z,610
2016-04-23T08:20:12.887Z,560
2016-04-23T08:20:55.840Z,485
2016-04-23T08:21:38.640Z,485
2016-04-23T08:22:21.596Z,510
2016-04-23T08:23:04.549Z,500
2016-04-23T08:23:47.536Z,495
2016-04-23T08:24:30.491Z,470
2016-04-23T08:25:12.683Z,465
2016-04-23T08:25:55.636Z,625
2016-04-23T08:26:38.591Z,550
2016-04-23T08:27:21.547Z,390
2016-04-23T08:28:04.516Z,435
2016-04-23T08:28:47.565Z,490
2016-04-23T08:29:30.510Z,420
2016-04-23T08:30:13.465Z,410
2016-04-23T08:30:58.622Z,405
2016-04-23T08:31:42.001Z,395
2016-04-23T08:32:24.987Z,390
2016-04-23T08:33:07.956Z,380
2016-04-23T08:33:50.943Z,395
2016-04-23T08:34:33.976Z,395
2016-04-23T08:35:16.995Z,370
2016-04-23T08:36:03.682Z,360
2016-04-23T08:36:46.654Z,375
2016-04-23T08:37:29.594Z,395
2016-04-23T08:38:12.547Z,405
2016-04-23T08:38:55.504Z,430
2016-04-23T08:39:38.506Z,425
2016-04-23T08:40:21.477Z,420
2016-04-23T08:41:05.695Z,425
2016-04-23T08:41:48.653Z,425
2016-04-23T08:42:31.608Z,390
2016-04-23T08:43:14.561Z,380
2016-04-23T08:43:57.375Z,360
2016-04-23T08:44:40.411Z,330
2016-04-23T08:45:23.366Z,320
2016-04-23T08:46:08.256Z,290
2016-04-23T08:46:51.274Z,260
2016-04-23T08:47:34.214Z,240
2016-04-23T08:48:17.578Z,235
2016-04-23T08:49:00.187Z,225
2016-04-23T08:49:43.142Z,210
2016-04-23T08:50:26.097Z,190
2016-04-23T08:51:10.363Z,170
2016-04-23T08:51:53.320Z,155
2016-04-23T08:52:36.588Z,145
2016-04-23T08:53:19.996Z,120
2016-04-23T08:54:03.059Z,105
2016-04-23T08:54:46.108Z,95
2016-04-23T08:55:29.111Z,90
2016-04-23T08:56:13.455Z,90
2016-04-23T08:56:56.427Z,95
2016-04-23T08:57:39.617Z,100
2016-04-23T08:58:22.713Z,105
2016-04-23T08:59:05.838Z,115
2016-04-23T08:59:48.888Z,125
2016-04-23T09:00:31.843Z,135
2016-04-23T09:01:14.734Z,145
2016-04-23T09:01:57.690Z,155
2016-04-23T09:02:40.662Z,165
2016-04-23T09:03:23.476Z,180
2016-04-23T09:04:06.429Z,200
2016-04-23T09:04:49.417Z,215
2016-04-23T09:05:32.373Z,230
2016-04-23T09:06:15.357Z,235
2016-04-23T09:06:58.501Z,245
2016-04-23T09:07:41.534Z,260
2016-04-23T09:08:24.490Z,275
2016-04-23T09:09:07.459Z,285
2016-04-23T09:09:50.445Z,300
2016-04-23T09:10:33.386Z,315
2016-04-23T09:11:16.183Z,335
2016-04-23T09:11:59.123Z,370
2016-04-23T09:12:42.111Z,500
2016-04-23T09:13:25.066Z,495
2016-04-23T09:14:08.019Z,570
2016-04-23T09:14:51.022Z,565
2016-04-23T09:15:33.962Z,545
2016-04-23T09:16:18.324Z,570
2016-04-23T09:17:01.527Z,685
2016-04-23T09:17:44.217Z,660
2016-04-23T09:18:27.173Z,1375
2016-04-23T09:19:09.361Z,1170
2016-04-23T09:19:51.520Z,810
2016-04-23T09:20:34.507Z,1140
2016-04-23T09:21:17.850Z,1680
2016-04-23T09:22:00.822Z,1620
2016-04-23T09:22:43.793Z,1630
2016-04-23T09:23:28.218Z,1660
2016-04-23T09:24:11.186Z,1725
2016-04-23T09:24:54.158Z,1790
2016-04-23T09:25:37.114Z,1725
2016-04-23T09:26:20.070Z,1845
2016-04-23T09:27:02.914Z,1880
2016-04-23T09:27:46.213Z,1960
2016-04-23T09:28:29.215Z,2020
2016-04-23T09:29:12.324Z,2015
2016-04-23T09:29:55.297Z,2045
2016-04-23T09:30:38.174Z,2115
2016-04-23T09:31:20.974Z,2195
2016-04-23T09:32:04.615Z,2145
2016-04-23T09:32:47.961Z,2150
2016-04-23T09:33:31.354Z,1185
2016-04-23T09:34:14.760Z,495
2016-04-23T09:34:57.763Z,630
2016-04-23T09:35:40.907Z,460
2016-04-23T09:36:23.893Z,855
2016-04-23T09:37:06.831Z,450
2016-04-23T09:37:49.787Z,465
2016-04-23T09:38:32.758Z,900
2016-04-23T09:39:15.726Z,925
2016-04-23T09:39:59.167Z,2315
2016-04-23T09:40:42.123Z,2300
2016-04-23T09:41:29.517Z,2360
2016-04-23T09:42:12.689Z,2390
2016-04-23T09:42:56.862Z,2515
2016-04-23T09:43:40.787Z,1275
2016-04-23T09:44:23.775Z,960
2016-04-23T09:45:07.212Z,845
2016-04-23T09:45:50.089Z,1585
2016-04-23T09:46:33.061Z,1465
2016-04-23T09:47:16.030Z,695
2016-04-23T09:47:59.001Z,590
2016-04-23T09:48:41.973Z,675
2016-04-23T09:49:24.961Z,2070
2016-04-23T09:50:07.945Z,450
2016-04-23T09:50:50.947Z,380
2016-04-23T09:51:33.934Z,345
2016-04-23T09:52:16.637Z,325
2016-04-23T09:52:59.671Z,315
2016-04-23T09:53:42.642Z,315
2016-04-23T09:54:25.614Z,320
2016-04-23T09:55:08.583Z,330
2016-04-23T09:55:51.569Z,335
2016-04-23T09:56:34.650Z,390
2016-04-23T09:57:17.979Z,365
2016-04-23T09:58:01.450Z,355
2016-04-23T09:58:44.530Z,350
2016-04-23T09:59:27.533Z,360
2016-04-23T10:00:10.502Z,380
2016-04-23T10:00:54.661Z,390
2016-04-23T10:01:37.602Z,385
2016-04-23T10:02:20.558Z,395
2016-04-23T10:03:03.402Z,580
2016-04-23T10:03:46.357Z,425
2016-04-23T10:04:29.359Z,400
2016-04-23T10:05:12.312Z,375
2016-04-23T10:05:55.471Z,360
2016-04-23T10:06:38.896Z,345
2016-04-23T10:07:21.899Z,335
2016-04-23T10:08:05.290Z,330
2016-04-23T10:08:48.651Z,325
2016-04-23T10:09:31.607Z,325
2016-04-23T10:10:14.514Z,345
2016-04-23T10:10:56.688Z,365
2016-04-23T10:11:39.987Z,405
2016-04-23T10:12:22.787Z,450
2016-04-23T10:13:06.162Z,490